Time;durP1;ratioP1;P1;durP2;ratioP2;P2;SDS_P1;SDS_P2;PMS_P1;PMS_P2;Temp;Humidity;BMP_temperature;BMP_pressure;BME280_temperature;BME280_humidity;BME280_pressure;Samples;Min_cycle;Max_cycle;Signal;HPM_P1;HPM_P2
2022/01/26 00:07:13;;;;;;;121.40;47.10;;;3.10;95.50;;;;;;5102041;27;20047;-79
2022/01/26 00:09:39;;;;;;;113.70;44.45;;;3.10;95.70;;;;;;5116009;27;20463;-79
2022/01/26 00:12:05;;;;;;;118.57;46.22;;;3.20;95.40;;;;;;5099289;27;20038;-79
2022/01/26 00:14:31;;;;;;;125.95;48.00;;;3.10;95.70;;;;;;5099077;27;20046;-79
2022/01/26 00:16:56;;;;;;;120.45;46.28;;;3.10;95.60;;;;;;5099120;27;20364;-79
2022/01/26 00:19:27;;;;;;;116.45;45.85;;;3.10;95.90;;;;;;5115909;27;20559;-79
2022/01/26 00:21:54;;;;;;;123.45;45.83;;;3.10;95.60;;;;;;5116067;27;20096;-79
2022/01/26 00:25:24;;;;;;;124.32;46.45;;;3.10;95.80;;;;;;5099006;28;20050;-79
2022/01/26 00:27:34;;;;;;;128.32;45.80;;;3.10;96.00;;;;;;5118839;27;20047;-79
2022/01/26 00:31:12;;;;;;;131.93;47.30;;;3.10;95.60;;;;;;5115703;27;20035;-79
2022/01/26 00:41:04;;;;;;;126.70;48.95;;;3.10;95.90;;;;;;5115859;27;20042;-79
2022/01/26 00:43:30;;;;;;;136.30;48.08;;;3.10;96.00;;;;;;5098685;28;20441;-79
2022/01/26 00:45:57;;;;;;;116.30;48.63;;;3.10;96.00;;;;;;5081754;28;20039;-79
2022/01/26 00:48:25;;;;;;;115.13;46.60;;;3.10;95.90;;;;;;5115754;28;20035;-79
2022/01/26 00:50:53;;;;;;;115.47;45.28;;;3.10;95.70;;;;;;5115765;28;20041;-79
2022/01/26 00:53:27;;;;;;;120.05;49.75;;;3.20;95.70;;;;;;5115233;28;20039;-79
2022/01/26 00:55:53;;;;;;;106.82;47.63;;;3.10;95.90;;;;;;5115334;28;20479;-79
2022/01/26 00:58:19;;;;;;;107.55;46.33;;;3.10;95.80;;;;;;5098369;27;20092;-79
2022/01/26 01:00:45;;;;;;;109.13;47.45;;;3.20;95.70;;;;;;5118699;27;20039;-79
2022/01/26 01:03:10;;;;;;;96.32;47.25;;;3.30;95.40;;;;;;5102477;27;20039;-79
2022/01/26 01:05:43;;;;;;;97.30;48.40;;;3.30;95.10;;;;;;5115798;28;20131;-79
2022/01/26 01:08:14;;;;;;;104.88;47.83;;;3.30;95.10;;;;;;5083355;28;20040;-79
2022/01/26 01:10:41;;;;;;;98.38;47.15;;;3.30;95.00;;;;;;5100113;28;20058;-79
2022/01/26 01:13:14;;;;;;;95.90;47.25;;;3.30;94.70;;;;;;5099122;28;20039;-79
2022/01/26 01:15:39;;;;;;;101.53;50.10;;;3.40;94.80;;;;;;5100295;28;20392;-80
2022/01/26 01:18:15;;;;;;;95.97;49.35;;;3.30;94.50;;;;;;5098880;28;20035;-79
2022/01/26 01:23:27;;;;;;;92.03;44.92;;;3.30;94.50;;;;;;5098921;28;20078;-78
2022/01/26 01:34:07;;;;;;;92.28;44.30;;;3.30;94.10;;;;;;5115553;28;20054;-78
2022/01/26 01:36:34;;;;;;;88.22;47.53;;;3.30;93.90;;;;;;5115590;28;20047;-78
2022/01/26 01:39:00;;;;;;;81.95;42.00;;;3.40;93.70;;;;;;5098821;28;20052;-78
2022/01/26 01:41:26;;;;;;;87.20;45.42;;;3.30;93.50;;;;;;5115367;28;20039;-78
2022/01/26 01:43:51;;;;;;;92.38;45.55;;;3.40;93.30;;;;;;5098241;28;20096;-78
2022/01/26 01:46:17;;;;;;;84.43;40.72;;;3.30;93.20;;;;;;5115873;28;20046;-78
2022/01/26 01:48:43;;;;;;;84.57;44.05;;;3.40;93.30;;;;;;5115244;28;20608;-78
2022/01/26 01:51:12;;;;;;;83.53;43.20;;;3.30;93.40;;;;;;5081462;28;20430;-78
2022/01/26 01:53:43;;;;;;;87.72;44.35;;;3.30;93.20;;;;;;5115443;28;20050;-78
2022/01/26 01:56:12;;;;;;;84.25;43.63;;;3.30;93.20;;;;;;5115199;28;20044;-78
2022/01/26 01:58:38;;;;;;;83.47;42.83;;;3.30;93.30;;;;;;5115212;28;20123;-78
2022/01/26 02:01:04;;;;;;;78.63;42.08;;;3.40;93.00;;;;;;5115084;28;20118;-78
2022/01/26 02:03:30;;;;;;;85.60;42.80;;;3.40;93.00;;;;;;5098188;28;20051;-78
2022/01/26 02:05:56;;;;;;;79.75;43.40;;;3.30;93.00;;;;;;5114755;28;20479;-78
2022/01/26 02:08:22;;;;;;;84.25;43.47;;;3.30;92.80;;;;;;5097884;28;20046;-78
2022/01/26 02:10:48;;;;;;;80.13;42.20;;;3.30;93.00;;;;;;5114897;28;20035;-78
2022/01/26 02:13:22;;;;;;;92.63;45.13;;;3.20;92.90;;;;;;5081032;28;20035;-78
2022/01/26 02:16:44;;;;;;;82.75;42.47;;;3.30;92.90;;;;;;5115023;28;20040;-78
2022/01/26 02:56:30;;;;;;;76.25;41.50;;;3.10;92.50;;;;;;5099689;28;20046;-78
2022/01/26 03:01:59;;;;;;;76.00;40.10;;;3.10;92.70;;;;;;5099554;28;20510;-78
2022/01/26 03:04:34;;;;;;;74.93;40.38;;;3.10;92.80;;;;;;5114630;27;20044;-77
2022/01/26 03:09:34;;;;;;;83.25;42.08;;;3.10;92.70;;;;;;5117056;27;20095;-78
2022/01/26 03:12:02;;;;;;;86.15;44.03;;;3.10;92.70;;;;;;5100982;27;20050;-79
2022/01/26 03:17:07;;;;;;;83.68;43.22;;;3.10;92.90;;;;;;5117306;27;20394;-79
2022/01/26 03:19:40;;;;;;;80.32;41.83;;;3.10;93.10;;;;;;5117316;27;20106;-79
2022/01/26 03:35:39;;;;;;;82.85;40.63;;;3.10;93.20;;;;;;5102215;27;20047;-79
2022/01/26 03:38:06;;;;;;;88.07;42.15;;;3.10;93.30;;;;;;5101729;27;20081;-79
2022/01/26 03:40:36;;;;;;;81.53;40.85;;;3.10;93.30;;;;;;5100039;27;20115;-79
2022/01/26 03:43:02;;;;;;;80.50;41.05;;;3.10;93.40;;;;;;5099500;27;20081;-79
2022/01/26 03:45:27;;;;;;;78.57;41.05;;;3.10;93.50;;;;;;5116376;27;20027;-79
2022/01/26 03:47:55;;;;;;;77.28;39.28;;;3.10;93.40;;;;;;5099511;27;20592;-79
2022/01/26 03:50:22;;;;;;;83.00;40.90;;;3.10;93.30;;;;;;5099465;27;20066;-78
2022/01/26 03:52:48;;;;;;;90.00;42.95;;;3.10;93.30;;;;;;5116390;27;20031;-78
2022/01/26 03:55:13;;;;;;;85.63;41.35;;;3.10;93.50;;;;;;5116167;27;20087;-79
2022/01/26 03:57:39;;;;;;;79.13;38.25;;;3.10;93.60;;;;;;5116373;27;20039;-79
2022/01/26 04:00:07;;;;;;;83.20;41.90;;;3.10;93.60;;;;;;5116488;27;20038;-79
2022/01/26 04:02:34;;;;;;;78.97;39.72;;;3.10;93.70;;;;;;5116429;27;20399;-79
2022/01/26 04:05:03;;;;;;;96.07;41.70;;;3.10;93.80;;;;;;5098968;27;20579;-79
2022/01/26 04:07:29;;;;;;;76.97;40.30;;;3.10;93.70;;;;;;5099932;27;20038;-78
2022/01/26 04:10:02;;;;;;;77.70;40.70;;;3.10;93.80;;;;;;5099384;27;20372;-79
2022/01/26 04:12:28;;;;;;;73.15;38.53;;;3.10;93.70;;;;;;5100258;27;20043;-79
2022/01/26 04:15:00;;;;;;;81.35;39.00;;;3.10;93.70;;;;;;5082116;27;20126;-78
2022/01/26 04:17:26;;;;;;;77.85;37.47;;;3.10;93.80;;;;;;5099020;27;20039;-79
2022/01/26 04:19:56;;;;;;;78.43;36.28;;;3.10;93.90;;;;;;5115857;27;20397;-79
2022/01/26 04:22:29;;;;;;;68.57;34.50;;;3.00;94.00;;;;;;5082577;27;20050;-79
2022/01/26 04:24:55;;;;;;;80.95;36.38;;;3.10;93.80;;;;;;5115643;27;20075;-79
2022/01/26 04:27:43;;;;;;;84.45;37.10;;;3.10;93.90;;;;;;5115703;27;20513;-79
2022/01/26 04:30:12;;;;;;;77.95;35.85;;;3.10;93.80;;;;;;5116124;28;20071;-79
2022/01/26 04:32:37;;;;;;;77.82;35.53;;;3.10;93.60;;;;;;5099131;27;20126;-79
2022/01/26 04:35:03;;;;;;;74.82;33.95;;;3.10;93.90;;;;;;5097983;28;20138;-79
2022/01/26 04:38:03;;;;;;;84.30;35.10;;;3.10;93.90;;;;;;5115563;27;20536;-79
2022/01/26 04:40:18;;;;;;;80.05;34.75;;;3.10;94.00;;;;;;5102002;27;20111;-79
2022/01/26 04:45:12;;;;;;;80.90;36.30;;;3.00;94.10;;;;;;5115359;28;20074;-79
2022/01/26 04:47:39;;;;;;;81.20;35.20;;;3.10;93.80;;;;;;5115809;28;20039;-79
2022/01/26 04:50:07;;;;;;;79.05;33.45;;;3.10;93.70;;;;;;5115994;28;20058;-79
2022/01/26 04:52:33;;;;;;;80.97;35.17;;;3.10;93.70;;;;;;5098270;28;20035;-78
2022/01/26 04:54:58;;;;;;;77.32;33.75;;;3.10;93.80;;;;;;5098539;28;20047;-79
2022/01/26 04:57:24;;;;;;;87.30;37.10;;;3.10;93.90;;;;;;5098518;28;20096;-79
2022/01/26 04:59:50;;;;;;;81.25;35.88;;;3.10;94.00;;;;;;5098752;28;20038;-79
2022/01/26 05:02:15;;;;;;;82.35;34.25;;;3.10;93.60;;;;;;5115367;28;20508;-79
2022/01/26 05:04:41;;;;;;;87.47;36.45;;;3.10;93.70;;;;;;5114971;28;20064;-78
2022/01/26 05:07:07;;;;;;;82.18;35.90;;;3.10;93.90;;;;;;5115381;28;20403;-78
2022/01/26 05:09:33;;;;;;;87.15;36.42;;;3.10;94.00;;;;;;5098279;28;20035;-79
2022/01/26 05:12:00;;;;;;;90.53;36.58;;;3.00;94.20;;;;;;5098246;28;20397;-79
2022/01/26 05:14:26;;;;;;;80.22;35.00;;;3.00;94.30;;;;;;5115171;28;20069;-79
2022/01/26 05:16:52;;;;;;;79.25;37.25;;;3.10;94.00;;;;;;5098316;28;20142;-79
2022/01/26 05:19:18;;;;;;;82.72;34.85;;;3.10;93.70;;;;;;5098275;28;20031;-79
2022/01/26 05:21:44;;;;;;;87.38;37.63;;;3.10;93.90;;;;;;5098568;28;20043;-78
2022/01/26 05:24:10;;;;;;;81.32;34.08;;;3.00;94.10;;;;;;5098135;28;20506;-78
2022/01/26 05:26:38;;;;;;;86.43;38.85;;;3.10;94.00;;;;;;5098530;28;20070;-78
2022/01/26 05:29:04;;;;;;;84.90;38.10;;;3.10;93.80;;;;;;5115078;28;20039;-78
2022/01/26 05:31:30;;;;;;;83.30;36.45;;;3.10;93.70;;;;;;5098485;28;20390;-78
2022/01/26 05:33:56;;;;;;;75.10;35.28;;;3.10;93.50;;;;;;5115303;28;20125;-79
2022/01/26 05:36:22;;;;;;;79.82;36.90;;;3.10;93.60;;;;;;5098389;28;20440;-78
2022/01/26 05:38:48;;;;;;;78.93;36.42;;;3.10;93.60;;;;;;5115052;28;20047;-78
2022/01/26 05:41:14;;;;;;;82.40;38.10;;;3.10;93.60;;;;;;5115255;28;20565;-78
2022/01/26 05:43:40;;;;;;;79.68;37.72;;;3.10;93.60;;;;;;5097958;28;20100;-78
2022/01/26 05:46:12;;;;;;;89.53;38.40;;;3.10;93.60;;;;;;5117069;27;20027;-78
2022/01/26 05:48:44;;;;;;;89.55;38.17;;;3.00;93.60;;;;;;5102089;27;20035;-78
2022/01/26 05:51:15;;;;;;;88.93;36.63;;;3.10;93.60;;;;;;5102799;27;20043;-78
2022/01/26 05:53:41;;;;;;;84.32;38.47;;;3.10;93.60;;;;;;5118768;27;20107;-78
2022/01/26 05:56:07;;;;;;;83.07;38.15;;;3.10;93.60;;;;;;5101475;27;20039;-79
2022/01/26 05:58:37;;;;;;;78.50;35.97;;;3.10;93.60;;;;;;5101475;27;20042;-78
2022/01/26 06:01:04;;;;;;;83.05;37.17;;;3.10;93.60;;;;;;5101846;27;20035;-78
2022/01/26 06:03:30;;;;;;;82.78;38.45;;;3.10;93.60;;;;;;5101562;27;20035;-78
2022/01/26 06:05:57;;;;;;;78.97;37.97;;;3.10;93.70;;;;;;5101120;27;20043;-78
2022/01/26 06:08:24;;;;;;;85.32;40.70;;;3.20;93.60;;;;;;5118378;27;20039;-78
2022/01/26 06:10:51;;;;;;;88.93;39.00;;;3.10;93.70;;;;;;5101345;27;20508;-78
2022/01/26 06:13:17;;;;;;;81.70;38.72;;;3.10;93.80;;;;;;5118288;27;20043;-79
2022/01/26 06:15:44;;;;;;;85.70;40.85;;;3.10;93.70;;;;;;5101304;27;20034;-78
2022/01/26 06:18:12;;;;;;;75.47;38.00;;;3.20;93.70;;;;;;5101036;27;20039;-79
2022/01/26 06:20:38;;;;;;;90.55;41.63;;;3.20;93.80;;;;;;5101205;27;20038;-79
2022/01/26 06:23:05;;;;;;;83.82;42.67;;;3.20;93.60;;;;;;5101068;27;20034;-79
2022/01/26 06:25:31;;;;;;;81.07;40.83;;;3.20;93.70;;;;;;5083765;27;20050;-79
2022/01/26 06:27:59;;;;;;;91.60;43.60;;;3.30;93.60;;;;;;5100978;27;20074;-78
2022/01/26 06:30:25;;;;;;;93.28;43.70;;;3.40;93.50;;;;;;5101643;27;20391;-78
2022/01/26 06:32:52;;;;;;;90.55;43.60;;;3.30;93.80;;;;;;5084095;27;20066;-78
2022/01/26 06:35:17;;;;;;;87.80;43.05;;;3.30;93.80;;;;;;5117816;27;20046;-78
2022/01/26 06:37:44;;;;;;;94.18;44.60;;;3.30;93.80;;;;;;5100860;27;20043;-78
2022/01/26 06:40:10;;;;;;;97.05;45.58;;;3.40;93.80;;;;;;5118062;27;20115;-78
2022/01/26 06:42:51;;;;;;;94.72;44.90;;;3.40;93.60;;;;;;5101158;27;20039;-78
2022/01/26 06:45:21;;;;;;;90.97;43.63;;;3.40;93.60;;;;;;5117945;27;20050;-78
2022/01/26 06:50:25;;;;;;;97.50;45.22;;;3.50;93.60;;;;;;5117941;27;20035;-78
2022/01/26 06:52:51;;;;;;;94.10;43.90;;;3.50;93.70;;;;;;5117880;27;20097;-77
2022/01/26 06:55:19;;;;;;;87.85;41.95;;;3.60;93.60;;;;;;5100872;27;20081;-78
2022/01/26 06:57:45;;;;;;;86.22;41.22;;;3.50;93.60;;;;;;5099785;27;20039;-78
2022/01/26 07:00:12;;;;;;;82.28;38.40;;;3.60;93.60;;;;;;5117655;27;20047;-77
2022/01/26 07:02:39;;;;;;;86.15;41.88;;;3.60;93.40;;;;;;5100946;27;20136;-78
2022/01/26 07:05:06;;;;;;;72.75;36.42;;;3.60;93.30;;;;;;5099547;27;20074;-77
2022/01/26 07:07:32;;;;;;;79.70;37.63;;;3.70;93.10;;;;;;5118048;27;20075;-78
2022/01/26 07:09:58;;;;;;;76.97;38.17;;;3.70;93.20;;;;;;5117910;27;20425;-78
2022/01/26 07:12:24;;;;;;;72.07;35.92;;;3.70;92.90;;;;;;5100559;27;20035;-77
2022/01/26 07:22:49;;;;;;;59.28;30.15;;;3.80;91.00;;;;;;5117475;27;20039;-78
2022/01/26 07:25:15;;;;;;;61.20;30.05;;;3.80;90.30;;;;;;5100037;27;20118;-77
2022/01/26 07:27:42;;;;;;;58.17;28.48;;;3.80;90.50;;;;;;5117480;27;20039;-78
2022/01/26 07:30:08;;;;;;;70.50;34.75;;;3.80;90.50;;;;;;5083273;27;20031;-77
2022/01/26 07:32:36;;;;;;;69.88;36.63;;;3.80;90.30;;;;;;5117090;27;20038;-78
2022/01/26 07:35:05;;;;;;;72.05;37.42;;;3.80;90.50;;;;;;5117440;27;20043;-77
2022/01/26 07:37:31;;;;;;;73.35;36.95;;;3.70;90.80;;;;;;5117035;27;20035;-78
2022/01/26 07:40:04;;;;;;;67.28;36.45;;;3.70;90.90;;;;;;5083427;27;20050;-77
2022/01/26 07:42:31;;;;;;;69.07;36.15;;;3.70;90.90;;;;;;5100601;27;20129;-77
2022/01/26 07:44:56;;;;;;;68.30;34.88;;;3.80;90.90;;;;;;5116664;27;20031;-77
2022/01/26 07:47:23;;;;;;;72.95;36.60;;;3.80;90.80;;;;;;5117284;27;20130;-77
2022/01/26 07:49:52;;;;;;;74.50;38.10;;;3.80;90.70;;;;;;5116992;27;20046;-78
2022/01/26 07:52:18;;;;;;;73.40;36.88;;;3.80;90.80;;;;;;5116815;27;20035;-77
2022/01/26 07:54:45;;;;;;;72.68;36.47;;;3.80;91.00;;;;;;5099272;27;20043;-77
2022/01/26 07:57:11;;;;;;;75.55;37.92;;;3.80;90.90;;;;;;5116592;27;20080;-78
2022/01/26 07:59:37;;;;;;;77.13;37.53;;;3.70;91.00;;;;;;5082141;27;20482;-78
2022/01/26 08:02:03;;;;;;;66.25;34.83;;;3.70;91.10;;;;;;5116048;27;20063;-79
2022/01/26 08:04:29;;;;;;;78.88;40.45;;;3.80;90.90;;;;;;5099222;27;20399;-78
2022/01/26 08:06:54;;;;;;;75.65;38.80;;;3.80;91.00;;;;;;5116371;27;20054;-79
2022/01/26 08:09:20;;;;;;;74.35;37.50;;;3.80;91.20;;;;;;5115974;27;20534;-78
2022/01/26 08:11:46;;;;;;;75.85;39.00;;;3.80;91.20;;;;;;5099444;27;20035;-78
2022/01/26 08:14:12;;;;;;;75.97;38.75;;;3.80;91.30;;;;;;5116607;27;20134;-78
2022/01/26 08:16:38;;;;;;;79.22;39.22;;;3.80;91.20;;;;;;5099583;27;20031;-78
2022/01/26 08:19:04;;;;;;;76.05;38.33;;;3.80;91.30;;;;;;5115930;27;20445;-78
2022/01/26 08:21:30;;;;;;;77.82;40.35;;;3.90;91.30;;;;;;5099624;27;20043;-78
2022/01/26 08:24:02;;;;;;;66.88;35.63;;;3.90;91.20;;;;;;5098338;28;20509;-78
2022/01/26 08:26:38;;;;;;;72.43;34.13;;;3.80;91.30;;;;;;5081448;27;20035;-78
2022/01/26 08:29:11;;;;;;;69.68;35.08;;;3.90;91.10;;;;;;5098508;27;20039;-78
2022/01/26 08:31:36;;;;;;;72.32;35.95;;;4.00;91.00;;;;;;5115436;27;20043;-78
2022/01/26 08:34:02;;;;;;;81.28;37.47;;;4.00;91.10;;;;;;5115545;27;20039;-78
2022/01/26 08:36:28;;;;;;;80.18;40.75;;;4.00;91.20;;;;;;5098280;27;20395;-78
2022/01/26 08:38:53;;;;;;;83.72;42.17;;;4.00;91.20;;;;;;5115315;27;20035;-78
2022/01/26 08:41:19;;;;;;;85.15;40.60;;;4.00;91.40;;;;;;5098893;28;20031;-78
2022/01/26 08:43:45;;;;;;;83.13;41.08;;;4.00;91.60;;;;;;5115713;27;20051;-78
2022/01/26 08:46:10;;;;;;;70.40;37.33;;;4.00;91.60;;;;;;5098506;28;20402;-79
2022/01/26 08:48:36;;;;;;;79.60;38.90;;;4.00;91.70;;;;;;5115705;28;20172;-78
2022/01/26 08:51:02;;;;;;;70.47;34.10;;;4.00;91.60;;;;;;5098597;28;20367;-78
2022/01/26 08:53:28;;;;;;;61.83;33.22;;;4.00;91.80;;;;;;5115432;28;20090;-78
2022/01/26 08:55:54;;;;;;;71.80;32.22;;;4.10;91.60;;;;;;5115691;28;20039;-79
2022/01/26 08:58:20;;;;;;;65.82;30.50;;;4.10;91.20;;;;;;5098738;28;20434;-78
2022/01/26 09:00:46;;;;;;;57.40;27.15;;;4.10;91.10;;;;;;5098779;28;20038;-79
2022/01/26 09:03:11;;;;;;;65.80;27.85;;;4.10;90.50;;;;;;5115473;28;20498;-79
2022/01/26 09:05:37;;;;;;;56.10;28.45;;;4.10;90.40;;;;;;5115118;28;20051;-79
2022/01/26 09:08:03;;;;;;;62.47;27.65;;;4.20;90.30;;;;;;5098660;28;20041;-78
2022/01/26 09:10:32;;;;;;;58.13;30.92;;;4.10;90.60;;;;;;5115352;28;20043;-79
2022/01/26 09:12:59;;;;;;;67.55;30.65;;;4.10;90.50;;;;;;5098916;28;20092;-78
2022/01/26 09:15:28;;;;;;;63.47;28.90;;;4.20;90.70;;;;;;5115506;28;20127;-79
2022/01/26 09:18:00;;;;;;;61.78;30.33;;;4.10;91.00;;;;;;5115252;28;20075;-79
2022/01/26 09:20:26;;;;;;;63.83;29.00;;;4.10;91.10;;;;;;5099448;27;20039;-79
2022/01/26 09:22:52;;;;;;;68.45;31.52;;;4.20;91.10;;;;;;5085294;27;20383;-79
2022/01/26 09:25:18;;;;;;;64.80;31.17;;;4.10;91.00;;;;;;5119037;27;20127;-79
2022/01/26 09:27:43;;;;;;;65.28;29.38;;;4.20;91.00;;;;;;5102436;27;20129;-79
2022/01/26 09:30:10;;;;;;;67.38;30.15;;;4.20;90.90;;;;;;5118903;27;20116;-79
2022/01/26 09:32:37;;;;;;;64.25;28.58;;;4.10;91.10;;;;;;5119298;27;20107;-79
2022/01/26 09:35:06;;;;;;;55.20;27.85;;;4.20;91.00;;;;;;5085225;27;20043;-79
2022/01/26 09:37:32;;;;;;;57.28;28.77;;;4.20;90.80;;;;;;5118975;27;20046;-79
2022/01/26 09:39:57;;;;;;;58.13;29.55;;;4.30;90.60;;;;;;5118940;27;20040;-79
2022/01/26 09:42:23;;;;;;;55.08;28.27;;;4.20;90.50;;;;;;5101822;27;20035;-79
2022/01/26 09:44:49;;;;;;;62.55;30.02;;;4.30;90.70;;;;;;5118857;27;20099;-78
2022/01/26 09:47:15;;;;;;;62.38;32.15;;;4.30;90.50;;;;;;5118803;27;20038;-78
2022/01/26 09:49:41;;;;;;;60.05;29.42;;;4.30;90.50;;;;;;5118031;27;20050;-78
2022/01/26 09:52:36;;;;;;;64.63;32.75;;;4.20;90.60;;;;;;5101758;27;20039;-78
2022/01/26 09:55:02;;;;;;;;;;;4.30;90.70;;;;;;5118152;27;20498;-78
2022/01/26 09:57:29;;;;;;;69.35;32.47;;;4.30;90.60;;;;;;5118125;27;19998;-79
2022/01/26 09:59:55;;;;;;;70.68;33.13;;;4.30;90.50;;;;;;5084680;27;20050;-79
2022/01/26 10:02:27;;;;;;;71.85;32.10;;;4.20;90.70;;;;;;5101605;27;20039;-79
2022/01/26 10:05:05;;;;;;;62.20;32.25;;;4.20;91.00;;;;;;5118116;27;20039;-79
2022/01/26 10:15:37;;;;;;;59.20;28.17;;;4.20;91.00;;;;;;5118440;27;20403;-79
2022/01/26 10:18:15;;;;;;;58.78;28.33;;;4.30;91.10;;;;;;5103406;27;20501;-79
2022/01/26 10:20:50;;;;;;;58.30;28.75;;;4.30;90.90;;;;;;5118039;27;20053;-79
2022/01/26 10:23:21;;;;;;;64.45;29.00;;;4.30;90.90;;;;;;5101257;27;20372;-79
2022/01/26 10:26:01;;;;;;;65.90;31.30;;;4.20;91.10;;;;;;5100928;27;20364;-79
2022/01/26 10:28:27;;;;;;;64.10;30.60;;;4.20;91.40;;;;;;5117987;27;20088;-79
2022/01/26 10:30:53;;;;;;;67.35;28.98;;;4.30;91.50;;;;;;5117896;27;20126;-79
2022/01/26 10:33:19;;;;;;;70.70;34.58;;;4.30;91.60;;;;;;5117931;27;20121;-79
2022/01/26 10:35:45;;;;;;;68.07;33.08;;;4.30;91.70;;;;;;5118043;27;20035;-79
2022/01/26 10:38:10;;;;;;;65.88;31.80;;;4.20;91.70;;;;;;5117633;27;20510;-79
2022/01/26 10:40:38;;;;;;;71.50;30.08;;;4.30;91.80;;;;;;5117783;27;20043;-79
2022/01/26 10:43:10;;;;;;;59.20;28.35;;;4.40;91.80;;;;;;5117792;27;20074;-79
2022/01/26 10:46:05;;;;;;;72.50;32.80;;;4.40;91.70;;;;;;5117360;27;20046;-79
2022/01/26 10:48:40;;;;;;;;;;;4.30;91.70;;;;;;5103803;27;20051;-79
2022/01/26 10:53:49;;;;;;;66.97;31.52;;;4.30;91.90;;;;;;5117629;27;19926;-79
2022/01/26 10:56:16;;;;;;;64.18;31.92;;;4.20;92.10;;;;;;5117423;27;20487;-79
2022/01/26 10:58:42;;;;;;;73.30;34.05;;;4.30;92.00;;;;;;5100257;27;20035;-79
2022/01/26 11:01:09;;;;;;;69.57;33.17;;;4.30;92.00;;;;;;5117283;27;20035;-78
2022/01/26 11:03:34;;;;;;;68.45;30.10;;;4.30;91.90;;;;;;5117310;27;20578;-79
2022/01/26 11:06:05;;;;;;;67.50;30.80;;;4.30;92.10;;;;;;5099999;27;20141;-79
2022/01/26 11:08:37;;;;;;;69.38;32.15;;;4.40;92.00;;;;;;5117309;27;20499;-79
2022/01/26 11:11:02;;;;;;;66.45;30.90;;;4.30;91.90;;;;;;5100252;27;20031;-79
2022/01/26 11:13:34;;;;;;;64.50;33.95;;;4.30;92.00;;;;;;5117044;27;20050;-79
2022/01/26 11:16:11;;;;;;;62.28;30.77;;;4.40;91.80;;;;;;5100595;27;20494;-79
2022/01/26 11:18:52;;;;;;;62.08;32.22;;;4.40;92.10;;;;;;5117069;27;20031;-79
2022/01/26 11:21:28;;;;;;;72.90;34.00;;;4.30;92.00;;;;;;5117306;27;20062;-78
2022/01/26 11:24:15;;;;;;;76.75;34.03;;;4.40;91.90;;;;;;5116168;27;20043;-78
2022/01/26 11:26:45;;;;;;;66.45;30.33;;;4.40;92.00;;;;;;5117147;27;20046;-79
2022/01/26 11:29:21;;;;;;;66.10;32.00;;;4.40;92.00;;;;;;5116628;27;20050;-78
2022/01/26 11:31:47;;;;;;;68.10;32.08;;;4.40;92.20;;;;;;5116844;27;20031;-79
2022/01/26 11:34:17;;;;;;;66.40;31.80;;;4.50;92.40;;;;;;5116865;27;20041;-79
2022/01/26 11:36:43;;;;;;;66.28;31.38;;;4.50;92.30;;;;;;5116854;27;20491;-79
2022/01/26 11:42:17;;;;;;;68.70;30.92;;;4.60;91.80;;;;;;5065544;27;20043;-79
2022/01/26 11:47:32;;;;;;;66.70;32.25;;;4.60;92.00;;;;;;5116345;27;20053;-78
2022/01/26 11:50:09;;;;;;;66.07;31.10;;;4.60;92.10;;;;;;5099521;27;20038;-79
2022/01/26 11:52:38;;;;;;;60.72;29.55;;;4.60;92.00;;;;;;5099659;27;20103;-79
2022/01/26 11:55:10;;;;;;;71.70;33.58;;;4.70;92.00;;;;;;5116307;27;20043;-78
2022/01/26 11:57:47;;;;;;;72.25;33.92;;;4.70;92.00;;;;;;5116159;27;20066;-79
2022/01/26 12:00:19;;;;;;;59.75;28.95;;;4.70;92.10;;;;;;5116577;27;20364;-79
2022/01/26 12:05:18;;;;;;;62.80;30.33;;;4.70;92.40;;;;;;5112654;28;20139;-78
2022/01/26 12:07:46;;;;;;;63.97;30.10;;;4.70;92.40;;;;;;5112999;28;20365;-80
2022/01/26 12:10:27;;;;;;;63.67;29.85;;;4.80;92.10;;;;;;5112940;28;20505;-79
2022/01/26 12:13:06;;;;;;;63.10;28.42;;;4.90;92.00;;;;;;5112798;28;20050;-79
2022/01/26 12:15:41;;;;;;;62.40;30.23;;;5.00;91.90;;;;;;5112494;28;20044;-78
2022/01/26 12:38:24;;;;;;;67.28;32.40;;;5.00;92.00;;;;;;5112747;28;20055;-79
2022/01/26 12:43:47;;;;;;;63.65;30.80;;;5.00;92.40;;;;;;5112213;28;20048;-79
2022/01/26 12:46:22;;;;;;;62.78;29.98;;;5.00;92.30;;;;;;5111835;28;20085;-79
2022/01/26 12:49:04;;;;;;;64.45;32.63;;;5.10;91.90;;;;;;5111990;28;20492;-79
2022/01/26 12:51:38;;;;;;;59.60;29.27;;;5.00;92.30;;;;;;5095365;28;20039;-78
2022/01/26 12:54:04;;;;;;;63.70;30.45;;;5.10;92.40;;;;;;5112123;28;20506;-78
2022/01/26 12:56:31;;;;;;;59.08;28.13;;;5.10;92.30;;;;;;5115004;28;20047;-78
2022/01/26 12:59:04;;;;;;;60.65;28.48;;;5.10;92.20;;;;;;5116323;28;20052;-78
2022/01/26 13:01:30;;;;;;;65.82;30.75;;;5.10;92.20;;;;;;5098798;28;20055;-79
2022/01/26 13:03:59;;;;;;;59.53;28.88;;;5.10;92.20;;;;;;5098847;28;20040;-78
2022/01/26 13:06:28;;;;;;;63.15;29.40;;;5.20;92.40;;;;;;5116169;28;20052;-79
2022/01/26 13:08:56;;;;;;;64.57;29.50;;;5.30;92.30;;;;;;5099147;28;20036;-79
2022/01/26 13:11:31;;;;;;;62.85;31.35;;;5.20;92.40;;;;;;5116127;28;20053;-79
2022/01/26 13:14:48;;;;;;;66.57;28.48;;;5.20;92.30;;;;;;5115954;28;20075;-79
2022/01/26 13:25:11;;;;;;;60.92;27.83;;;5.20;92.20;;;;;;5098692;28;20130;-78
2022/01/26 13:38:42;;;;;;;58.83;26.33;;;5.30;91.70;;;;;;5115587;28;20528;-79
2022/01/26 13:51:44;;;;;;;54.90;26.05;;;5.30;92.10;;;;;;5115469;28;20054;-78
2022/01/26 13:59:53;;;;;;;52.35;25.98;;;5.40;92.10;;;;;;5115281;28;20535;-79
2022/01/26 14:02:08;;;;;;;57.95;27.35;;;5.30;92.40;;;;;;5112248;28;20069;-78
2022/01/26 14:04:34;;;;;;;52.58;27.20;;;5.30;92.50;;;;;;5081270;28;20039;-78
2022/01/26 14:07:00;;;;;;;48.65;26.50;;;5.40;92.40;;;;;;5097642;28;20062;-78
2022/01/26 14:09:26;;;;;;;49.53;22.77;;;5.30;92.50;;;;;;5081199;28;20126;-78
2022/01/26 14:11:52;;;;;;;50.10;25.52;;;5.40;92.60;;;;;;5081408;28;20065;-78
2022/01/26 14:14:31;;;;;;;53.97;26.02;;;5.50;92.30;;;;;;5114752;28;20040;-78
2022/01/26 14:16:59;;;;;;;47.88;24.20;;;5.50;92.40;;;;;;5097919;28;20035;-78
2022/01/26 14:19:55;;;;;;;49.40;24.30;;;5.50;92.70;;;;;;5115060;28;20047;-78
2022/01/26 14:27:46;;;;;;;46.63;24.60;;;5.50;92.50;;;;;;5115025;28;20043;-78
2022/01/26 14:30:31;;;;;;;50.08;25.45;;;5.50;92.80;;;;;;5114649;28;20043;-79
2022/01/26 14:33:16;;;;;;;49.92;26.30;;;5.50;92.50;;;;;;5114789;28;20123;-79
2022/01/26 14:54:22;;;;;;;54.30;26.08;;;5.50;92.90;;;;;;5114076;28;20043;-78
2022/01/26 15:40:19;;;;;;;53.67;23.35;;;5.60;93.20;;;;;;5114139;28;20040;-77
2022/01/26 15:50:48;;;;;;;55.70;24.50;;;5.50;93.80;;;;;;5112994;28;20043;-77
2022/01/26 16:06:54;;;;;;;51.33;26.00;;;5.60;94.00;;;;;;5112432;28;20130;-78
2022/01/26 16:20:20;;;;;;;60.25;25.83;;;5.60;94.30;;;;;;5096129;28;20044;-77
2022/01/26 16:35:08;;;;;;;52.42;25.20;;;5.60;94.50;;;;;;5112401;28;20126;-79
2022/01/26 18:15:52;;;;;;;41.67;21.23;;;6.00;94.20;;;;;;5097176;27;20058;-81
2022/01/26 18:40:27;;;;;;;42.97;22.90;;;6.10;94.00;;;;;;5111001;27;20495;-81
2022/01/26 18:50:50;;;;;;;42.15;21.70;;;6.10;94.20;;;;;;5096413;27;20125;-80
2022/01/26 18:53:16;;;;;;;43.70;23.60;;;6.10;94.00;;;;;;5075935;27;20065;-80
2022/01/26 18:55:42;;;;;;;44.90;21.95;;;6.10;94.00;;;;;;5109996;27;20050;-81
2022/01/26 18:58:08;;;;;;;38.53;19.27;;;6.10;94.00;;;;;;5093934;27;20168;-80
2022/01/26 19:00:34;;;;;;;46.33;23.55;;;6.10;94.00;;;;;;5111109;27;20094;-80
2022/01/26 19:03:00;;;;;;;41.38;22.67;;;6.20;93.90;;;;;;5077011;27;20050;-81
2022/01/26 19:05:27;;;;;;;39.75;22.48;;;6.10;93.80;;;;;;5110027;27;20403;-81
2022/01/26 19:07:54;;;;;;;38.17;21.75;;;6.20;93.70;;;;;;5093467;27;20060;-82
2022/01/26 19:10:21;;;;;;;39.08;21.08;;;6.20;93.70;;;;;;5094439;27;20059;-81
2022/01/26 19:12:49;;;;;;;39.47;22.27;;;6.20;93.70;;;;;;5120420;27;20043;-81
2022/01/26 19:15:18;;;;;;;39.58;21.30;;;6.20;93.80;;;;;;5109761;27;20082;-80
2022/01/26 19:20:35;;;;;;;39.70;21.38;;;6.30;93.60;;;;;;5110701;27;20055;-81
2022/01/26 19:25:40;;;;;;;37.58;20.92;;;6.30;93.50;;;;;;5109391;27;20071;-81
2022/01/26 19:31:45;;;;;;;37.45;20.38;;;6.30;93.60;;;;;;5093370;27;20445;-80
2022/01/26 19:44:04;;;;;;;41.80;22.58;;;6.20;94.40;;;;;;5110421;27;20053;-81
2022/01/26 19:51:56;;;;;;;40.80;20.55;;;6.30;94.40;;;;;;5095103;27;20095;-80
2022/01/26 19:54:22;;;;;;;40.70;20.20;;;6.30;94.50;;;;;;5109423;27;20499;-80
2022/01/26 19:56:47;;;;;;;39.28;19.67;;;6.30;94.50;;;;;;5109967;27;20039;-80
2022/01/26 19:59:13;;;;;;;33.03;17.00;;;6.30;94.60;;;;;;5110085;27;20051;-80
2022/01/26 20:01:39;;;;;;;42.47;19.63;;;6.40;94.40;;;;;;5092603;27;20039;-80
2022/01/26 20:04:05;;;;;;;37.78;19.55;;;6.30;94.50;;;;;;5090983;27;20043;-81